Time;durP1;ratioP1;P1;durP2;ratioP2;P2;SDS_P1;SDS_P2;PMS_P1;PMS_P2;Temp;Humidity;BMP_temperature;BMP_pressure;BME280_temperature;BME280_humidity;BME280_pressure;Samples;Min_cycle;Max_cycle;Signal;HPM_P1;HPM_P2
2023/12/22 00:01:40;;;;;;;0.87;0.87;;;7.00;99.90;;;;;;5051536;28;20685;-79
2023/12/22 00:04:06;;;;;;;0.63;0.63;;;6.90;99.90;;;;;;5071019;28;20262;-80
2023/12/22 00:06:32;;;;;;;0.53;0.53;;;6.70;99.90;;;;;;5070516;28;20415;-79
2023/12/22 00:08:58;;;;;;;0.90;0.90;;;6.60;99.90;;;;;;5074629;28;20233;-78
2023/12/22 00:11:24;;;;;;;0.70;0.70;;;6.50;99.90;;;;;;5073559;28;20244;-75
2023/12/22 00:13:50;;;;;;;1.67;0.83;;;6.20;99.90;;;;;;5076652;28;20182;-75
2023/12/22 00:16:16;;;;;;;0.90;0.90;;;6.20;99.90;;;;;;5074857;28;20182;-77
2023/12/22 00:18:42;;;;;;;1.40;1.23;;;6.10;99.90;;;;;;5076118;28;20186;-77
2023/12/22 00:21:11;;;;;;;1.50;1.40;;;5.90;99.90;;;;;;5074383;28;20196;-80
2023/12/22 00:23:37;;;;;;;1.30;1.30;;;5.90;99.90;;;;;;5082257;28;20183;-78
2023/12/22 00:26:05;;;;;;;1.30;1.30;;;5.80;99.90;;;;;;5094304;28;20274;-77
2023/12/22 00:28:31;;;;;;;1.10;1.10;;;5.80;99.90;;;;;;5090841;28;20189;-78
2023/12/22 00:30:58;;;;;;;1.20;1.20;;;5.70;99.90;;;;;;5076246;28;20175;-79
2023/12/22 00:33:24;;;;;;;1.30;1.30;;;5.60;99.90;;;;;;5075741;28;20176;-80
2023/12/22 00:35:50;;;;;;;1.33;1.33;;;5.60;99.90;;;;;;5074532;28;20182;-79
2023/12/22 00:38:15;;;;;;;2.03;1.93;;;5.60;99.90;;;;;;5073339;28;20664;-76
2023/12/22 00:40:41;;;;;;;1.70;1.63;;;5.60;99.90;;;;;;5059757;28;20178;-79
2023/12/22 00:43:07;;;;;;;0.90;0.90;;;5.50;99.90;;;;;;5068956;28;20645;-80
2023/12/22 00:45:33;;;;;;;0.70;0.70;;;5.30;99.90;;;;;;5074231;28;20174;-79
2023/12/22 00:47:58;;;;;;;0.73;0.73;;;5.60;99.90;;;;;;5076559;28;20221;-77
2023/12/22 00:50:24;;;;;;;0.43;0.43;;;5.70;99.90;;;;;;5069909;28;20189;-79
2023/12/22 00:52:50;;;;;;;1.43;0.63;;;5.90;99.90;;;;;;5075327;28;20292;-78
2023/12/22 00:55:15;;;;;;;0.60;0.60;;;6.00;99.90;;;;;;5074719;28;20176;-80
2023/12/22 00:57:42;;;;;;;0.50;0.50;;;5.90;99.90;;;;;;5056326;28;20713;-77
2023/12/22 01:00:12;;;;;;;0.67;0.67;;;5.90;99.90;;;;;;5069990;28;20212;-79
2023/12/22 01:02:38;;;;;;;0.50;0.50;;;6.00;99.90;;;;;;5052083;28;20191;-80
2023/12/22 01:05:04;;;;;;;0.43;0.43;;;6.00;99.90;;;;;;5051734;28;20177;-79
2023/12/22 01:07:30;;;;;;;0.53;0.53;;;6.00;99.90;;;;;;5037420;28;20301;-78
2023/12/22 01:10:01;;;;;;;0.60;0.60;;;6.00;99.90;;;;;;5060598;28;20549;-79
2023/12/22 01:12:28;;;;;;;0.60;0.60;;;5.90;99.90;;;;;;5050639;28;20181;-80
2023/12/22 01:14:55;;;;;;;0.83;0.60;;;6.00;99.90;;;;;;5039554;28;20647;-80
2023/12/22 01:17:21;;;;;;;0.37;0.37;;;6.10;99.90;;;;;;5050649;28;20265;-78
2023/12/22 01:19:46;;;;;;;0.40;0.40;;;6.30;99.90;;;;;;5054072;28;20184;-77
2023/12/22 01:22:12;;;;;;;0.20;0.20;;;6.20;99.90;;;;;;5054444;28;20263;-76
2023/12/22 01:24:40;;;;;;;0.40;0.40;;;6.30;99.90;;;;;;5036525;28;20174;-79
2023/12/22 01:27:07;;;;;;;0.40;0.40;;;6.40;99.90;;;;;;5054534;28;20246;-79
2023/12/22 01:29:32;;;;;;;0.37;0.37;;;6.30;99.90;;;;;;5056133;28;20172;-78
2023/12/22 01:31:58;;;;;;;0.43;0.40;;;6.40;99.90;;;;;;5052958;28;20190;-77
2023/12/22 01:34:24;;;;;;;0.30;0.30;;;6.50;99.90;;;;;;5053677;28;20192;-77
2023/12/22 01:36:50;;;;;;;0.57;0.57;;;6.60;99.90;;;;;;5054526;28;20187;-79
2023/12/22 01:39:16;;;;;;;0.20;0.20;;;6.60;99.90;;;;;;5054324;28;20181;-78
2023/12/22 01:41:42;;;;;;;0.40;0.40;;;6.60;99.90;;;;;;5056663;28;20284;-77
2023/12/22 01:44:08;;;;;;;0.30;0.30;;;6.50;99.90;;;;;;5054458;28;20206;-79
2023/12/22 01:46:35;;;;;;;0.50;0.50;;;6.50;99.90;;;;;;5054467;28;20728;-80
2023/12/22 01:49:01;;;;;;;0.83;0.40;;;6.40;99.90;;;;;;5049879;28;20184;-80
2023/12/22 01:51:31;;;;;;;0.40;0.40;;;6.50;99.90;;;;;;5048223;28;20236;-77
2023/12/22 01:53:57;;;;;;;0.43;0.43;;;6.30;99.90;;;;;;5038896;28;20183;-77
2023/12/22 01:56:23;;;;;;;1.30;0.40;;;6.30;99.90;;;;;;5056222;28;20175;-78
2023/12/22 01:58:53;;;;;;;1.50;0.40;;;6.20;99.90;;;;;;5054562;28;20199;-78
2023/12/22 02:01:20;;;;;;;0.20;0.20;;;6.10;99.90;;;;;;5055769;28;20226;-76
2023/12/22 02:03:52;;;;;;;0.40;0.37;;;6.20;99.90;;;;;;5069027;28;20265;-78
2023/12/22 02:06:19;;;;;;;0.27;0.27;;;6.30;99.90;;;;;;5062575;28;20220;-77
2023/12/22 02:08:47;;;;;;;0.60;0.60;;;6.30;99.90;;;;;;5058187;28;20186;-77
2023/12/22 02:11:13;;;;;;;0.40;0.40;;;6.40;99.90;;;;;;5061469;28;20168;-77
2023/12/22 02:13:39;;;;;;;1.20;0.30;;;6.40;99.90;;;;;;5058088;28;20185;-80
2023/12/22 02:16:18;;;;;;;0.30;0.30;;;6.30;99.90;;;;;;5054917;28;20287;-78
2023/12/22 02:18:50;;;;;;;0.23;0.23;;;6.30;99.90;;;;;;5053179;28;20454;-77
2023/12/22 02:21:24;;;;;;;0.40;0.40;;;6.30;99.90;;;;;;5054469;28;20170;-75
2023/12/22 02:23:50;;;;;;;0.30;0.30;;;6.30;99.90;;;;;;5052553;28;20508;-78
2023/12/22 02:26:36;;;;;;;0.40;0.40;;;6.20;99.90;;;;;;5052903;28;20267;-76
2023/12/22 02:29:02;;;;;;;0.37;0.37;;;6.30;99.90;;;;;;5065338;28;20164;-78
2023/12/22 02:31:36;;;;;;;0.20;0.20;;;6.40;99.90;;;;;;5053418;28;20197;-79
2023/12/22 02:34:07;;;;;;;0.43;0.27;;;6.30;99.90;;;;;;5054761;28;20700;-78
2023/12/22 02:36:36;;;;;;;0.30;0.30;;;6.20;99.90;;;;;;5057641;28;20181;-79
2023/12/22 02:39:02;;;;;;;0.40;0.40;;;6.30;99.90;;;;;;5056565;28;20574;-79
2023/12/22 02:41:28;;;;;;;0.20;0.20;;;6.40;99.90;;;;;;5038972;28;20306;-79
2023/12/22 02:43:54;;;;;;;0.20;0.20;;;6.20;99.90;;;;;;5057529;28;20244;-77
2023/12/22 02:46:20;;;;;;;0.20;0.20;;;6.30;99.90;;;;;;5056107;28;20647;-80
2023/12/22 02:48:46;;;;;;;0.40;0.40;;;6.20;99.90;;;;;;5053721;28;20172;-80
2023/12/22 02:51:12;;;;;;;0.60;0.60;;;6.40;99.90;;;;;;5039951;28;20181;-80
2023/12/22 02:53:37;;;;;;;0.40;0.40;;;6.00;99.90;;;;;;5053014;28;20189;-79
2023/12/22 02:56:03;;;;;;;0.20;0.20;;;6.10;99.90;;;;;;5038630;28;20184;-79
2023/12/22 02:58:29;;;;;;;0.30;0.30;;;6.00;99.90;;;;;;5055657;28;20185;-78
2023/12/22 03:00:55;;;;;;;0.27;0.27;;;6.10;99.90;;;;;;5056800;28;20265;-79
2023/12/22 03:03:20;;;;;;;0.30;0.30;;;6.10;99.90;;;;;;5056356;28;20188;-79
2023/12/22 03:05:46;;;;;;;0.30;0.30;;;5.90;99.90;;;;;;5056947;28;20183;-78
2023/12/22 03:08:12;;;;;;;0.23;0.23;;;5.80;99.90;;;;;;5056632;28;20203;-75
2023/12/22 03:10:38;;;;;;;0.40;0.40;;;5.90;99.90;;;;;;5055423;28;20180;-78
2023/12/22 03:13:03;;;;;;;0.20;0.20;;;5.80;99.90;;;;;;5054701;28;20263;-79
2023/12/22 03:15:29;;;;;;;0.40;0.40;;;5.70;99.90;;;;;;5056815;28;20175;-80
2023/12/22 03:17:55;;;;;;;0.20;0.20;;;5.70;99.90;;;;;;5052074;28;20615;-76
2023/12/22 03:20:20;;;;;;;0.27;0.20;;;5.70;99.90;;;;;;5038272;28;20540;-78
2023/12/22 03:22:46;;;;;;;0.30;0.30;;;5.50;99.90;;;;;;5054504;28;20275;-77
2023/12/22 03:25:12;;;;;;;0.20;0.20;;;5.70;99.90;;;;;;5053861;28;20200;-78
2023/12/22 03:27:38;;;;;;;0.57;0.30;;;5.60;99.90;;;;;;5059160;28;20213;-75
2023/12/22 03:30:04;;;;;;;0.20;0.20;;;5.60;99.90;;;;;;5054398;28;20898;-75
2023/12/22 03:32:30;;;;;;;0.17;0.17;;;5.70;99.90;;;;;;5062207;28;20192;-80
2023/12/22 03:34:56;;;;;;;0.20;0.20;;;5.70;99.90;;;;;;5064846;28;20172;-75
2023/12/22 03:37:21;;;;;;;0.30;0.30;;;5.80;99.90;;;;;;5033961;28;20181;-79
2023/12/22 03:39:47;;;;;;;0.20;0.20;;;5.80;99.90;;;;;;5050796;28;20179;-79
2023/12/22 03:42:13;;;;;;;0.30;0.30;;;5.70;99.90;;;;;;5046853;28;20181;-78
2023/12/22 03:44:38;;;;;;;0.43;0.43;;;5.70;99.90;;;;;;5054209;28;20195;-77
2023/12/22 03:47:04;;;;;;;0.10;0.10;;;5.60;99.90;;;;;;5062064;28;20205;-75
2023/12/22 03:49:30;;;;;;;0.40;0.40;;;5.60;99.90;;;;;;5041806;28;20184;-76
2023/12/22 03:51:57;;;;;;;0.30;0.30;;;5.60;99.90;;;;;;5072067;28;20192;-74
2023/12/22 03:54:23;;;;;;;0.27;0.27;;;5.60;99.90;;;;;;5073463;28;20187;-77
2023/12/22 03:56:48;;;;;;;0.50;0.50;;;5.60;99.90;;;;;;5066874;28;20181;-78
2023/12/22 03:59:18;;;;;;;0.40;0.40;;;5.60;99.90;;;;;;5063258;28;20236;-78
2023/12/22 04:01:44;;;;;;;0.33;0.33;;;5.50;99.90;;;;;;5088287;28;20308;-78
2023/12/22 04:04:10;;;;;;;0.60;0.40;;;5.50;99.90;;;;;;5068378;28;20172;-78
2023/12/22 04:06:40;;;;;;;0.43;0.43;;;5.50;99.90;;;;;;5071211;28;20216;-77
2023/12/22 04:09:05;;;;;;;0.30;0.30;;;5.40;99.90;;;;;;5072647;28;20608;-77
2023/12/22 04:11:32;;;;;;;0.30;0.30;;;5.40;99.90;;;;;;5074651;28;20186;-80
2023/12/22 04:13:58;;;;;;;0.20;0.20;;;5.40;99.90;;;;;;5047374;28;21108;-77
2023/12/22 04:16:24;;;;;;;0.30;0.30;;;5.30;99.90;;;;;;5073422;28;20184;-79
2023/12/22 04:18:49;;;;;;;0.30;0.30;;;5.40;99.90;;;;;;5057429;28;20168;-76
2023/12/22 04:21:16;;;;;;;0.30;0.30;;;5.40;99.90;;;;;;5075169;28;20263;-78
2023/12/22 04:23:41;;;;;;;0.20;0.20;;;5.60;99.90;;;;;;5067574;28;20179;-77
2023/12/22 04:26:07;;;;;;;0.30;0.30;;;5.50;99.90;;;;;;5076691;28;20241;-78
2023/12/22 04:28:33;;;;;;;0.23;0.23;;;5.70;99.90;;;;;;5062059;28;20822;-78
2023/12/22 04:30:58;;;;;;;0.17;0.17;;;5.60;99.90;;;;;;5095852;28;20188;-80
2023/12/22 04:33:24;;;;;;;0.20;0.20;;;5.50;99.90;;;;;;5068419;28;20285;-76
2023/12/22 04:35:50;;;;;;;0.40;0.40;;;5.60;99.90;;;;;;5044317;28;20180;-75
2023/12/22 04:38:16;;;;;;;0.20;0.20;;;5.50;99.90;;;;;;5050229;28;20184;-77
2023/12/22 04:40:41;;;;;;;0.20;0.20;;;5.70;99.90;;;;;;5055608;28;20309;-79
2023/12/22 04:43:07;;;;;;;0.47;0.27;;;5.60;99.90;;;;;;5058009;28;20285;-80
2023/12/22 04:45:33;;;;;;;0.20;0.20;;;5.70;99.90;;;;;;5069467;28;20190;-78
2023/12/22 04:47:58;;;;;;;0.33;0.30;;;5.80;99.90;;;;;;5054848;28;20213;-79
2023/12/22 04:50:24;;;;;;;0.30;0.30;;;5.80;99.90;;;;;;5050183;28;20174;-78
2023/12/22 04:52:50;;;;;;;0.50;0.50;;;5.70;99.90;;;;;;5059911;28;20259;-77
2023/12/22 04:55:16;;;;;;;0.40;0.40;;;5.70;99.90;;;;;;5034082;28;20314;-77
2023/12/22 04:57:41;;;;;;;0.30;0.30;;;5.80;99.90;;;;;;5032779;28;20212;-79
2023/12/22 05:00:08;;;;;;;0.50;0.50;;;5.60;99.90;;;;;;5052877;28;20274;-78
2023/12/22 05:02:33;;;;;;;0.40;0.40;;;5.50;99.90;;;;;;5089461;28;20200;-76
2023/12/22 05:05:01;;;;;;;0.30;0.30;;;5.50;99.90;;;;;;5084935;28;20233;-77
2023/12/22 05:07:27;;;;;;;0.30;0.30;;;5.30;99.90;;;;;;5099475;28;20219;-78
2023/12/22 05:09:54;;;;;;;0.30;0.30;;;5.30;99.90;;;;;;5073095;28;20229;-81
2023/12/22 05:12:20;;;;;;;0.30;0.30;;;5.40;99.90;;;;;;5088021;28;20191;-79
2023/12/22 05:14:46;;;;;;;0.37;0.37;;;5.30;99.90;;;;;;5080331;28;20164;-77
2023/12/22 05:17:11;;;;;;;0.37;0.37;;;5.30;99.90;;;;;;5081797;28;20173;-77
2023/12/22 05:19:38;;;;;;;0.40;0.40;;;5.20;99.90;;;;;;5075993;28;20180;-82
2023/12/22 05:22:03;;;;;;;0.40;0.40;;;5.20;99.90;;;;;;5076253;28;20174;-78
2023/12/22 05:24:29;;;;;;;0.60;0.60;;;5.10;99.90;;;;;;5074260;28;20237;-79
2023/12/22 05:26:55;;;;;;;0.70;0.47;;;5.20;99.90;;;;;;5074551;28;20210;-77
2023/12/22 05:29:21;;;;;;;0.40;0.40;;;5.00;99.90;;;;;;5072566;28;20179;-77
2023/12/22 05:31:46;;;;;;;0.60;0.60;;;5.10;99.90;;;;;;5074005;28;20176;-78
2023/12/22 05:34:12;;;;;;;0.60;0.60;;;5.10;99.90;;;;;;5081611;28;20179;-77
2023/12/22 05:36:38;;;;;;;0.60;0.60;;;5.10;99.90;;;;;;5079971;28;20219;-77
2023/12/22 05:39:03;;;;;;;1.40;0.50;;;5.10;99.90;;;;;;5073420;28;20178;-77
2023/12/22 05:41:29;;;;;;;0.60;0.60;;;5.10;99.90;;;;;;5073870;28;20223;-77
2023/12/22 05:43:55;;;;;;;0.73;0.73;;;5.00;99.90;;;;;;5076677;28;20269;-76
2023/12/22 05:46:21;;;;;;;0.53;0.53;;;5.00;99.90;;;;;;5077877;28;20606;-77
2023/12/22 05:48:46;;;;;;;0.73;0.47;;;5.10;99.90;;;;;;5096000;28;20198;-76
2023/12/22 05:51:13;;;;;;;0.50;0.50;;;5.00;99.90;;;;;;5075648;28;20246;-77
2023/12/22 05:53:42;;;;;;;0.50;0.50;;;4.80;99.90;;;;;;5073247;28;20193;-77
2023/12/22 05:56:20;;;;;;;0.70;0.70;;;5.10;99.90;;;;;;5082320;28;20183;-75
2023/12/22 05:58:46;;;;;;;0.60;0.60;;;5.20;99.90;;;;;;5089922;28;20235;-77
2023/12/22 06:01:18;;;;;;;0.80;0.80;;;5.20;99.90;;;;;;5077776;28;20265;-77
2023/12/22 06:03:48;;;;;;;0.83;0.83;;;5.20;99.90;;;;;;5075059;28;20666;-78
2023/12/22 06:06:14;;;;;;;0.70;0.70;;;5.20;99.90;;;;;;5076533;28;20251;-79
2023/12/22 06:08:40;;;;;;;0.67;0.67;;;5.20;99.90;;;;;;5035791;28;20221;-78
2023/12/22 06:11:06;;;;;;;0.40;0.40;;;5.30;99.90;;;;;;5034055;28;20170;-78
2023/12/22 06:13:32;;;;;;;0.40;0.30;;;5.30;99.90;;;;;;5039413;28;20193;-79
2023/12/22 06:15:58;;;;;;;0.73;0.73;;;5.40;99.90;;;;;;5073898;28;20172;-79
2023/12/22 06:18:24;;;;;;;0.80;0.80;;;5.30;99.90;;;;;;5035122;28;20192;-78
2023/12/22 06:20:50;;;;;;;1.03;1.03;;;5.30;99.90;;;;;;5070903;28;20626;-79
2023/12/22 06:23:16;;;;;;;1.37;1.27;;;5.30;99.90;;;;;;5062406;28;20188;-74
2023/12/22 06:25:41;;;;;;;1.10;1.07;;;5.20;99.90;;;;;;5045317;28;20187;-78
2023/12/22 06:28:07;;;;;;;0.90;0.90;;;5.10;99.90;;;;;;5032569;28;20211;-77
2023/12/22 06:30:33;;;;;;;0.90;0.90;;;5.00;99.90;;;;;;5032927;28;20181;-78
2023/12/22 06:32:58;;;;;;;0.60;0.60;;;5.00;99.90;;;;;;5033109;28;20868;-79
2023/12/22 06:35:25;;;;;;;0.50;0.50;;;5.10;99.90;;;;;;5034049;28;20628;-78
2023/12/22 06:37:55;;;;;;;0.50;0.50;;;5.00;99.90;;;;;;5034520;28;20667;-80
2023/12/22 06:40:21;;;;;;;0.47;0.47;;;5.00;99.90;;;;;;5033532;28;20644;-79
2023/12/22 06:42:47;;;;;;;0.80;0.80;;;5.00;99.90;;;;;;5033954;28;20213;-80
2023/12/22 06:45:12;;;;;;;1.30;1.30;;;4.90;99.90;;;;;;5058846;28;20172;-79
2023/12/22 06:47:38;;;;;;;0.70;0.70;;;5.00;99.90;;;;;;5072301;28;20235;-79
2023/12/22 06:50:04;;;;;;;1.37;0.53;;;5.00;99.90;;;;;;5034844;28;20997;-79
2023/12/22 06:52:30;;;;;;;0.73;0.73;;;5.10;99.90;;;;;;5042279;28;20194;-77
2023/12/22 06:54:59;;;;;;;0.73;0.73;;;4.90;99.90;;;;;;5050889;28;20180;-78
2023/12/22 06:57:25;;;;;;;0.70;0.70;;;5.00;99.90;;;;;;5092039;28;20171;-77
2023/12/22 06:59:50;;;;;;;0.50;0.50;;;4.80;99.90;;;;;;5069158;28;20235;-76
2023/12/22 07:02:17;;;;;;;0.47;0.47;;;4.90;99.90;;;;;;5095816;28;20201;-76
2023/12/22 07:05:11;;;;;;;0.60;0.57;;;5.10;99.90;;;;;;5077515;28;20180;-80
2023/12/22 07:07:37;;;;;;;0.60;0.60;;;5.00;99.90;;;;;;5076079;28;20199;-76
2023/12/22 07:10:04;;;;;;;0.60;0.60;;;5.10;99.90;;;;;;5090437;28;20183;-78
2023/12/22 07:12:29;;;;;;;0.60;0.60;;;5.20;99.90;;;;;;5096400;28;20183;-79
2023/12/22 07:14:55;;;;;;;0.40;0.40;;;5.10;99.90;;;;;;5079397;28;20509;-78
2023/12/22 07:17:21;;;;;;;0.63;0.63;;;5.10;99.90;;;;;;5075043;28;20197;-77
2023/12/22 07:19:47;;;;;;;0.77;0.77;;;5.00;99.90;;;;;;5076813;28;20584;-77
2023/12/22 07:22:14;;;;;;;0.80;0.80;;;4.90;99.90;;;;;;5080496;28;20179;-78
2023/12/22 07:24:40;;;;;;;0.60;0.60;;;5.00;99.90;;;;;;5080608;28;20179;-76
2023/12/22 07:27:06;;;;;;;0.70;0.70;;;4.90;99.90;;;;;;5079458;28;20276;-79
2023/12/22 07:29:31;;;;;;;0.70;0.70;;;5.00;99.90;;;;;;5083238;28;20689;-77
2023/12/22 07:31:57;;;;;;;0.80;0.80;;;4.90;99.90;;;;;;5099895;28;20691;-78
2023/12/22 07:34:25;;;;;;;0.83;0.83;;;4.90;99.90;;;;;;5101013;28;20229;-75
2023/12/22 07:36:53;;;;;;;0.70;0.70;;;5.00;99.90;;;;;;5076072;28;20191;-77
2023/12/22 07:39:19;;;;;;;0.60;0.60;;;5.10;99.90;;;;;;5077976;28;20224;-78
2023/12/22 07:41:45;;;;;;;0.67;0.67;;;5.80;99.90;;;;;;5077639;28;20258;-79
2023/12/22 07:44:10;;;;;;;0.80;0.80;;;5.00;99.90;;;;;;5090236;28;20172;-77
2023/12/22 07:46:36;;;;;;;0.77;0.77;;;5.00;99.90;;;;;;5086487;28;20221;-78
2023/12/22 07:49:02;;;;;;;0.90;0.90;;;5.10;99.90;;;;;;5076234;28;20203;-80
2023/12/22 07:51:28;;;;;;;0.90;0.90;;;5.10;99.90;;;;;;5078993;28;20519;-77
2023/12/22 07:53:53;;;;;;;1.10;1.00;;;5.10;99.90;;;;;;5076145;28;20636;-77
2023/12/22 07:56:19;;;;;;;0.90;0.90;;;5.20;99.90;;;;;;5074714;28;20218;-76
2023/12/22 07:58:46;;;;;;;0.80;0.80;;;5.20;99.90;;;;;;5076794;28;20811;-80
2023/12/22 08:01:12;;;;;;;0.80;0.80;;;5.30;99.90;;;;;;5078578;28;20232;-77
2023/12/22 08:03:38;;;;;;;0.80;0.80;;;5.30;99.90;;;;;;5065052;28;20190;-76
2023/12/22 08:06:04;;;;;;;0.50;0.50;;;5.10;99.90;;;;;;5074005;28;20255;-78
2023/12/22 08:08:30;;;;;;;0.50;0.50;;;5.30;99.90;;;;;;5074786;28;20182;-79
2023/12/22 08:10:56;;;;;;;0.50;0.50;;;5.30;99.90;;;;;;5080692;28;20550;-80
2023/12/22 08:13:22;;;;;;;0.50;0.50;;;5.30;99.90;;;;;;5075380;28;20256;-76
2023/12/22 08:15:47;;;;;;;0.63;0.63;;;5.30;99.90;;;;;;5075606;28;20176;-79
2023/12/22 08:18:16;;;;;;;0.70;0.70;;;5.20;99.90;;;;;;5076130;28;20230;-79
2023/12/22 08:20:42;;;;;;;0.93;0.93;;;6.30;99.90;;;;;;5074061;28;20271;-80
2023/12/22 08:23:08;;;;;;;0.90;0.90;;;5.20;99.90;;;;;;5075256;28;20180;-77
2023/12/22 08:25:34;;;;;;;0.80;0.70;;;5.20;99.90;;;;;;5073384;28;20172;-79
2023/12/22 08:28:01;;;;;;;1.27;1.27;;;5.10;99.90;;;;;;5075404;28;20248;-79
2023/12/22 08:30:26;;;;;;;2.90;2.57;;;5.30;99.90;;;;;;5074604;28;20637;-78
2023/12/22 08:32:53;;;;;;;0.70;0.70;;;5.20;99.90;;;;;;5075022;28;20173;-76
2023/12/22 08:35:19;;;;;;;0.60;0.60;;;5.10;99.90;;;;;;5074679;28;20286;-76
2023/12/22 08:37:45;;;;;;;0.97;0.97;;;5.00;99.90;;;;;;5075346;28;20202;-77
2023/12/22 08:40:10;;;;;;;0.77;0.70;;;5.10;99.90;;;;;;5083465;28;20179;-77
2023/12/22 08:42:36;;;;;;;1.63;1.53;;;5.10;99.90;;;;;;5083266;28;20176;-75
2023/12/22 08:45:02;;;;;;;1.10;1.10;;;5.10;99.90;;;;;;5085444;28;20185;-77
2023/12/22 08:47:28;;;;;;;0.90;0.90;;;5.20;99.90;;;;;;5088009;28;20243;-76
2023/12/22 08:49:54;;;;;;;0.87;0.87;;;5.20;99.90;;;;;;5078080;28;20177;-78
2023/12/22 08:52:19;;;;;;;1.17;1.13;;;5.10;99.90;;;;;;5075281;28;20736;-78
2023/12/22 08:54:45;;;;;;;1.07;1.00;;;5.30;99.90;;;;;;5075632;28;20183;-79
2023/12/22 08:57:11;;;;;;;0.87;0.87;;;5.00;99.90;;;;;;5075327;28;20167;-78
2023/12/22 08:59:36;;;;;;;0.90;0.90;;;5.20;99.90;;;;;;5074253;28;20184;-77
2023/12/22 09:02:02;;;;;;;1.17;1.10;;;5.00;99.90;;;;;;5061087;28;20203;-76
2023/12/22 09:04:28;;;;;;;1.27;0.63;;;4.90;99.90;;;;;;5059129;28;20216;-77
2023/12/22 09:06:54;;;;;;;1.20;1.20;;;5.10;99.90;;;;;;5057687;28;20219;-78
2023/12/22 09:09:21;;;;;;;1.30;1.30;;;5.10;99.90;;;;;;5061075;28;20527;-77
2023/12/22 09:11:47;;;;;;;1.00;1.00;;;5.00;99.90;;;;;;5054887;28;20645;-77
2023/12/22 09:14:13;;;;;;;1.03;0.93;;;5.70;99.90;;;;;;5055187;28;20216;-76
2023/12/22 09:16:40;;;;;;;1.20;1.10;;;4.90;99.90;;;;;;5054633;28;20558;-76
2023/12/22 09:19:06;;;;;;;1.20;1.10;;;4.90;99.90;;;;;;5056608;28;20258;-78
2023/12/22 09:21:32;;;;;;;1.10;1.10;;;4.90;99.90;;;;;;5055532;28;20170;-77
2023/12/22 09:23:58;;;;;;;1.03;0.97;;;4.80;99.90;;;;;;5072316;28;20190;-78
2023/12/22 09:26:23;;;;;;;1.80;1.50;;;4.80;99.90;;;;;;5060235;28;20209;-76
2023/12/22 09:28:49;;;;;;;0.70;0.70;;;4.70;99.90;;;;;;5054527;28;20186;-76
2023/12/22 09:31:15;;;;;;;1.13;1.03;;;4.70;99.90;;;;;;5055712;28;20211;-75
2023/12/22 09:33:42;;;;;;;0.80;0.80;;;4.70;99.90;;;;;;5053845;28;20188;-76
2023/12/22 09:36:08;;;;;;;0.67;0.67;;;4.70;99.90;;;;;;5054127;28;20187;-79
2023/12/22 09:38:34;;;;;;;0.70;0.70;;;4.80;99.90;;;;;;5056767;28;20181;-76
2023/12/22 09:41:01;;;;;;;0.50;0.50;;;4.90;99.90;;;;;;5075427;28;20324;-79
2023/12/22 09:43:27;;;;;;;1.00;0.80;;;4.80;99.90;;;;;;5056038;28;20167;-77
2023/12/22 09:45:53;;;;;;;1.13;1.03;;;5.00;99.90;;;;;;5053822;28;20240;-78
2023/12/22 09:48:26;;;;;;;1.57;1.03;;;4.80;99.90;;;;;;5053596;28;20586;-78
2023/12/22 09:50:54;;;;;;;1.10;1.10;;;4.90;99.90;;;;;;5053422;28;20583;-79
2023/12/22 09:53:20;;;;;;;1.30;1.30;;;4.90;99.90;;;;;;5053555;28;20267;-77
2023/12/22 09:55:48;;;;;;;1.97;1.87;;;4.90;99.90;;;;;;5053487;28;20679;-77
2023/12/22 09:58:16;;;;;;;2.00;1.80;;;5.00;99.90;;;;;;5053948;28;20720;-77
2023/12/22 10:00:43;;;;;;;1.43;1.20;;;5.10;99.90;;;;;;5073943;28;20199;-76
2023/12/22 10:03:11;;;;;;;1.40;1.40;;;5.10;99.90;;;;;;5055321;28;20165;-78
2023/12/22 10:05:37;;;;;;;10.77;6.83;;;5.10;99.90;;;;;;5053545;28;20179;-79
2023/12/22 10:08:05;;;;;;;4.33;3.90;;;5.20;99.90;;;;;;5055103;28;20206;-76
2023/12/22 10:10:36;;;;;;;2.77;2.53;;;5.20;99.90;;;;;;5054205;28;20719;-77
2023/12/22 10:13:04;;;;;;;2.57;2.10;;;5.20;99.90;;;;;;5053977;28;20291;-78
2023/12/22 10:15:30;;;;;;;2.00;1.90;;;5.30;99.90;;;;;;5036282;28;20174;-76
2023/12/22 10:17:57;;;;;;;1.80;1.70;;;5.20;99.90;;;;;;5034772;28;20181;-77
2023/12/22 10:20:22;;;;;;;2.50;2.07;;;5.20;99.90;;;;;;5054394;28;20259;-78
2023/12/22 10:22:48;;;;;;;1.70;1.60;;;5.10;99.90;;;;;;5059684;28;20590;-78
2023/12/22 10:25:27;;;;;;;1.83;1.73;;;5.10;99.90;;;;;;5053843;28;20177;-78
2023/12/22 10:27:53;;;;;;;1.83;1.67;;;5.40;99.90;;;;;;5053690;28;20270;-78
2023/12/22 10:30:19;;;;;;;1.80;1.70;;;5.30;99.90;;;;;;5053623;28;20538;-78
2023/12/22 10:32:45;;;;;;;2.20;1.63;;;5.40;99.90;;;;;;5056994;28;20168;-77
2023/12/22 10:35:12;;;;;;;2.53;1.33;;;5.50;99.90;;;;;;5061147;28;20176;-79
2023/12/22 10:37:38;;;;;;;1.30;1.30;;;5.50;99.90;;;;;;5055270;28;20182;-78
2023/12/22 10:40:05;;;;;;;2.47;1.50;;;5.50;99.90;;;;;;5053060;28;20174;-77
2023/12/22 10:42:32;;;;;;;1.83;1.30;;;5.40;99.90;;;;;;5053015;28;20177;-76
2023/12/22 10:44:58;;;;;;;0.90;0.90;;;5.50;99.90;;;;;;5052914;28;20641;-77
2023/12/22 10:47:24;;;;;;;1.20;1.03;;;5.50;99.90;;;;;;5052069;28;20564;-75
2023/12/22 10:49:51;;;;;;;1.20;1.20;;;5.50;99.90;;;;;;5052988;28;20173;-74
2023/12/22 10:52:17;;;;;;;1.60;1.60;;;5.70;99.90;;;;;;5052977;28;20173;-78
2023/12/22 10:54:44;;;;;;;1.00;1.00;;;5.60;99.90;;;;;;5053675;28;20648;-77
2023/12/22 10:57:10;;;;;;;0.97;0.97;;;5.80;99.90;;;;;;5056550;28;20168;-75
2023/12/22 10:59:44;;;;;;;1.40;1.30;;;5.80;99.90;;;;;;5039167;28;20174;-76
2023/12/22 11:02:15;;;;;;;1.33;1.10;;;5.70;99.90;;;;;;5058074;28;20261;-77
2023/12/22 11:04:47;;;;;;;2.50;2.30;;;5.70;99.90;;;;;;5061710;28;20688;-78
2023/12/22 11:07:14;;;;;;;2.57;2.47;;;5.60;99.90;;;;;;5065567;28;20651;-75
2023/12/22 11:09:44;;;;;;;2.57;2.37;;;5.70;99.90;;;;;;5063444;28;20234;-77
2023/12/22 11:12:11;;;;;;;2.40;2.30;;;6.00;99.90;;;;;;5039388;28;20274;-75
2023/12/22 11:14:41;;;;;;;2.20;2.10;;;6.00;99.90;;;;;;5056316;28;20245;-77
2023/12/22 11:17:09;;;;;;;2.20;2.10;;;6.00;99.90;;;;;;5056834;28;20185;-75
2023/12/22 11:19:35;;;;;;;2.10;2.00;;;6.20;99.90;;;;;;5060966;28;20175;-76
2023/12/22 11:22:04;;;;;;;2.03;1.77;;;6.30;99.90;;;;;;5056032;28;20265;-74
2023/12/22 11:24:30;;;;;;;1.90;1.80;;;6.30;99.90;;;;;;5056195;28;20178;-76
2023/12/22 11:27:00;;;;;;;2.70;2.10;;;6.30;99.90;;;;;;5055803;28;20237;-76
2023/12/22 11:29:27;;;;;;;1.80;1.70;;;6.30;99.90;;;;;;5056455;28;20198;-78
2023/12/22 11:31:55;;;;;;;2.27;2.03;;;6.10;99.90;;;;;;5056713;28;20613;-79
2023/12/22 11:34:24;;;;;;;2.10;2.00;;;6.00;99.90;;;;;;5058223;28;20186;-77
2023/12/22 11:36:51;;;;;;;2.37;2.23;;;6.10;99.90;;;;;;5068184;28;20253;-75
2023/12/22 11:39:17;;;;;;;2.57;2.40;;;6.10;99.90;;;;;;5065612;28;20952;-77
2023/12/22 11:41:44;;;;;;;2.87;2.63;;;6.10;99.90;;;;;;5067409;28;20184;-79
2023/12/22 11:44:10;;;;;;;2.80;2.60;;;6.20;99.90;;;;;;5058331;28;20266;-76
2023/12/22 11:46:36;;;;;;;3.63;3.33;;;6.10;99.90;;;;;;5063013;28;20207;-77
2023/12/22 11:49:05;;;;;;;3.00;2.80;;;6.00;99.90;;;;;;5053918;28;20204;-78
2023/12/22 11:51:36;;;;;;;3.00;2.80;;;6.00;99.90;;;;;;5066321;28;20190;-76
2023/12/22 11:54:02;;;;;;;3.67;3.03;;;6.00;99.90;;;;;;5057434;28;20197;-76
2023/12/22 11:56:30;;;;;;;3.70;3.40;;;5.80;99.90;;;;;;5058413;28;20527;-78
2023/12/22 11:58:58;;;;;;;4.47;3.40;;;5.90;99.90;;;;;;5038838;28;20183;-77
2023/12/22 12:01:25;;;;;;;3.20;3.00;;;5.80;99.90;;;;;;5067626;28;20254;-78
2023/12/22 12:03:56;;;;;;;2.63;2.37;;;5.60;99.90;;;;;;5061883;28;20208;-75
2023/12/22 12:06:24;;;;;;;1.83;1.73;;;5.70;99.90;;;;;;5056094;28;20198;-76
2023/12/22 12:08:51;;;;;;;1.70;1.60;;;5.50;99.90;;;;;;5057652;28;20172;-75
2023/12/22 12:11:20;;;;;;;2.33;1.63;;;5.50;99.90;;;;;;5055766;28;20212;-78
2023/12/22 12:13:46;;;;;;;2.57;1.10;;;5.50;99.90;;;;;;5055880;28;20203;-79
2023/12/22 12:16:22;;;;;;;2.17;1.43;;;5.50;99.90;;;;;;5055209;28;20273;-75
2023/12/22 12:18:48;;;;;;;1.10;1.10;;;5.50;99.90;;;;;;5055574;28;20164;-76
2023/12/22 12:21:16;;;;;;;2.33;1.90;;;5.50;99.90;;;;;;5055121;28;20188;-77
2023/12/22 12:23:42;;;;;;;15.83;7.77;;;5.50;99.90;;;;;;5055798;28;20169;-78
2023/12/22 12:26:08;;;;;;;8.33;2.80;;;5.50;99.90;;;;;;5054983;28;20180;-78
2023/12/22 12:28:36;;;;;;;1.47;1.37;;;5.60;99.90;;;;;;5055200;28;20550;-76
2023/12/22 12:31:06;;;;;;;1.23;1.20;;;5.60;99.90;;;;;;5054840;28;20185;-79
2023/12/22 12:33:32;;;;;;;1.30;1.30;;;5.70;99.90;;;;;;5054959;28;20172;-78
2023/12/22 12:36:00;;;;;;;1.00;1.00;;;5.60;99.90;;;;;;5054723;28;20186;-77
2023/12/22 12:39:01;;;;;;;1.10;1.10;;;5.60;99.90;;;;;;5054714;28;20196;-79
2023/12/22 12:41:31;;;;;;;0.90;0.90;;;5.50;99.90;;;;;;5054611;28;20162;-77
2023/12/22 12:43:58;;;;;;;0.90;0.90;;;5.50;99.90;;;;;;5054556;28;20184;-78
2023/12/22 12:46:35;;;;;;;0.80;0.80;;;5.40;99.90;;;;;;5053974;28;20258;-78
2023/12/22 12:49:09;;;;;;;1.27;0.57;;;5.30;99.90;;;;;;5055064;28;20169;-77
2023/12/22 12:51:43;;;;;;;0.60;0.60;;;5.40;99.90;;;;;;5054368;28;20176;-76
2023/12/22 12:54:12;;;;;;;0.80;0.80;;;5.40;99.90;;;;;;5054142;28;20173;-75
2023/12/22 12:56:45;;;;;;;0.80;0.70;;;5.50;99.90;;;;;;5065465;28;20182;-77